sensor_id;sensor_type;location;lat;lon;timestamp;pressure;altitude;pressure_sealevel;temperature;humidity
8140;BME280;4111;50.972;7.072;2022-09-12T00:01:14;101248.41;;;15.11;98.69
8140;BME280;4111;50.972;7.072;2022-09-12T00:03:42;101247.84;;;15.14;98.85
8140;BME280;4111;50.972;7.072;2022-09-12T00:06:20;101242.13;;;15.16;98.53
8140;BME280;4111;50.972;7.072;2022-09-12T00:08:49;101245.41;;;15.13;98.17
8140;BME280;4111;50.972;7.072;2022-09-12T00:11:16;101242.22;;;15.31;98.44
8140;BME280;4111;50.972;7.072;2022-09-12T00:13:42;101245.84;;;15.47;97.32
8140;BME280;4111;50.972;7.072;2022-09-12T00:16:14;101243.44;;;15.61;95.96
8140;BME280;4111;50.972;7.072;2022-09-12T00:18:41;101241.19;;;15.47;95.25
8140;BME280;4111;50.972;7.072;2022-09-12T00:21:07;101232.13;;;15.42;95.12
8140;BME280;4111;50.972;7.072;2022-09-12T00:23:34;101237.59;;;15.37;95.63
8140;BME280;4111;50.972;7.072;2022-09-12T00:26:03;101230.38;;;15.20;95.61
8140;BME280;4111;50.972;7.072;2022-09-12T00:28:32;101235.84;;;15.20;95.81
8140;BME280;4111;50.972;7.072;2022-09-12T00:31:03;101227.34;;;15.12;96.15
8140;BME280;4111;50.972;7.072;2022-09-12T00:33:30;101230.88;;;15.07;96.21
8140;BME280;4111;50.972;7.072;2022-09-12T00:35:57;101234.91;;;14.99;96.98
8140;BME280;4111;50.972;7.072;2022-09-12T00:38:23;101228.09;;;15.02;96.46
8140;BME280;4111;50.972;7.072;2022-09-12T00:40:50;101222.88;;;14.95;96.27
8140;BME280;4111;50.972;7.072;2022-09-12T00:45:56;101236.25;;;14.97;96.58
8140;BME280;4111;50.972;7.072;2022-09-12T00:48:30;101224.44;;;14.86;97.08
8140;BME280;4111;50.972;7.072;2022-09-12T00:50:58;101217.28;;;14.80;97.17
8140;BME280;4111;50.972;7.072;2022-09-12T00:53:26;101217.34;;;14.85;97.21
8140;BME280;4111;50.972;7.072;2022-09-12T00:55:54;101217.03;;;14.81;97.42
8140;BME280;4111;50.972;7.072;2022-09-12T00:58:25;101216.44;;;14.74;97.64
8140;BME280;4111;50.972;7.072;2022-09-12T01:00:54;101217.47;;;14.68;97.36
8140;BME280;4111;50.972;7.072;2022-09-12T01:03:22;101216.44;;;14.74;97.47
8140;BME280;4111;50.972;7.072;2022-09-12T01:06:15;101211.56;;;14.81;97.33
8140;BME280;4111;50.972;7.072;2022-09-12T01:08:46;101214.97;;;15.04;97.03
8140;BME280;4111;50.972;7.072;2022-09-12T01:11:13;101219.56;;;14.93;96.36
8140;BME280;4111;50.972;7.072;2022-09-12T01:13:41;101214.31;;;14.86;96.33
8140;BME280;4111;50.972;7.072;2022-09-12T01:16:08;101214.31;;;14.81;96.14
8140;BME280;4111;50.972;7.072;2022-09-12T01:32:39;101212.25;;;14.61;97.06
8140;BME280;4111;50.972;7.072;2022-09-12T01:35:23;101210.59;;;14.60;96.68
8140;BME280;4111;50.972;7.072;2022-09-12T01:38:22;101205.34;;;14.54;96.76
8140;BME280;4111;50.972;7.072;2022-09-12T01:41:10;101196.47;;;14.41;97.01
8140;BME280;4111;50.972;7.072;2022-09-12T01:46:31;101202.22;;;14.40;97.12
8140;BME280;4111;50.972;7.072;2022-09-12T01:49:11;101205.22;;;14.38;97.25
8140;BME280;4111;50.972;7.072;2022-09-12T01:51:46;101204.09;;;14.39;97.26
8140;BME280;4111;50.972;7.072;2022-09-12T01:54:37;101202.41;;;14.33;97.08
8140;BME280;4111;50.972;7.072;2022-09-12T01:57:12;101195.06;;;14.34;97.26
8140;BME280;4111;50.972;7.072;2022-09-12T01:59:43;101198.38;;;14.36;96.67
8140;BME280;4111;50.972;7.072;2022-09-12T02:02:21;101185.16;;;14.27;96.63
8140;BME280;4111;50.972;7.072;2022-09-12T02:05:07;101193.63;;;14.26;96.78
8140;BME280;4111;50.972;7.072;2022-09-12T02:07:43;101184.91;;;14.29;96.77
8140;BME280;4111;50.972;7.072;2022-09-12T02:10:15;101182.72;;;14.26;96.63
8140;BME280;4111;50.972;7.072;2022-09-12T02:12:50;101194.38;;;14.16;96.87
8140;BME280;4111;50.972;7.072;2022-09-12T02:15:23;101192.50;;;14.22;96.77
8140;BME280;4111;50.972;7.072;2022-09-12T02:17:54;101178.84;;;14.22;96.73
8140;BME280;4111;50.972;7.072;2022-09-12T02:20:24;101180.19;;;14.19;96.82
8140;BME280;4111;50.972;7.072;2022-09-12T02:23:16;101182.91;;;14.19;96.28
8140;BME280;4111;50.972;7.072;2022-09-12T02:25:47;101186.50;;;14.25;96.15
8140;BME280;4111;50.972;7.072;2022-09-12T02:28:26;101186.16;;;14.16;96.11
8140;BME280;4111;50.972;7.072;2022-09-12T02:31:03;101184.69;;;14.03;96.26
8140;BME280;4111;50.972;7.072;2022-09-12T02:38:50;101174.28;;;14.00;96.71
8140;BME280;4111;50.972;7.072;2022-09-12T02:41:18;101175.91;;;14.01;96.60
8140;BME280;4111;50.972;7.072;2022-09-12T02:43:47;101178.16;;;14.04;96.76
8140;BME280;4111;50.972;7.072;2022-09-12T02:46:20;101175.41;;;14.04;97.09
8140;BME280;4111;50.972;7.072;2022-09-12T02:48:47;101171.84;;;14.04;97.11
8140;BME280;4111;50.972;7.072;2022-09-12T02:51:14;101167.97;;;14.00;96.93
8140;BME280;4111;50.972;7.072;2022-09-12T02:53:43;101171.50;;;13.95;97.43
8140;BME280;4111;50.972;7.072;2022-09-12T02:56:16;101165.53;;;13.98;97.64
8140;BME280;4111;50.972;7.072;2022-09-12T02:58:43;101160.03;;;13.93;97.82
8140;BME280;4111;50.972;7.072;2022-09-12T03:01:26;101153.19;;;13.91;97.94
8140;BME280;4111;50.972;7.072;2022-09-12T03:09:28;101145.72;;;13.81;98.18
8140;BME280;4111;50.972;7.072;2022-09-12T03:12:11;101144.13;;;13.85;97.99
8140;BME280;4111;50.972;7.072;2022-09-12T03:23:37;101152.31;;;13.90;97.27
8140;BME280;4111;50.972;7.072;2022-09-12T03:26:16;101154.25;;;13.89;96.59
8140;BME280;4111;50.972;7.072;2022-09-12T03:28:46;101155.03;;;13.85;96.90
8140;BME280;4111;50.972;7.072;2022-09-12T03:31:15;101154.72;;;13.81;97.10
8140;BME280;4111;50.972;7.072;2022-09-12T03:33:43;101154.22;;;13.84;97.10
8140;BME280;4111;50.972;7.072;2022-09-12T03:36:24;101158.72;;;13.74;97.00
8140;BME280;4111;50.972;7.072;2022-09-12T03:38:50;101153.19;;;13.63;97.00
8140;BME280;4111;50.972;7.072;2022-09-12T03:41:17;101151.50;;;13.62;97.03
8140;BME280;4111;50.972;7.072;2022-09-12T03:43:44;101153.50;;;13.67;97.01
8140;BME280;4111;50.972;7.072;2022-09-12T03:46:12;101156.16;;;13.62;97.10
8140;BME280;4111;50.972;7.072;2022-09-12T03:48:39;101161.28;;;13.58;97.35
8140;BME280;4111;50.972;7.072;2022-09-12T03:51:08;101154.97;;;13.53;97.21
8140;BME280;4111;50.972;7.072;2022-09-12T03:53:35;101159.84;;;13.51;97.33
8140;BME280;4111;50.972;7.072;2022-09-12T03:56:10;101154.19;;;13.57;97.16
8140;BME280;4111;50.972;7.072;2022-09-12T03:58:37;101152.53;;;13.56;97.41
8140;BME280;4111;50.972;7.072;2022-09-12T04:01:15;101150.38;;;13.58;97.59
8140;BME280;4111;50.972;7.072;2022-09-12T04:03:44;101145.69;;;13.54;97.22
8140;BME280;4111;50.972;7.072;2022-09-12T04:06:13;101142.66;;;13.50;97.41
8140;BME280;4111;50.972;7.072;2022-09-12T04:08:41;101136.06;;;13.46;97.48
8140;BME280;4111;50.972;7.072;2022-09-12T04:11:13;101147.28;;;13.49;97.34
8140;BME280;4111;50.972;7.072;2022-09-12T04:13:41;101148.00;;;13.40;97.45
8140;BME280;4111;50.972;7.072;2022-09-12T04:16:08;101145.03;;;13.41;97.47
8140;BME280;4111;50.972;7.072;2022-09-12T04:18:35;101142.34;;;13.46;97.68
8140;BME280;4111;50.972;7.072;2022-09-12T04:21:04;101137.84;;;13.57;97.60
8140;BME280;4111;50.972;7.072;2022-09-12T04:23:31;101144.88;;;13.53;97.19
8140;BME280;4111;50.972;7.072;2022-09-12T04:25:59;101141.53;;;13.46;97.02
8140;BME280;4111;50.972;7.072;2022-09-12T04:28:27;101138.47;;;13.42;97.48
8140;BME280;4111;50.972;7.072;2022-09-12T04:30:55;101139.91;;;13.45;97.69
8140;BME280;4111;50.972;7.072;2022-09-12T04:33:21;101135.75;;;13.42;98.21
8140;BME280;4111;50.972;7.072;2022-09-12T04:35:47;101136.59;;;13.43;97.73
8140;BME280;4111;50.972;7.072;2022-09-12T04:38:14;101132.28;;;13.47;97.96
8140;BME280;4111;50.972;7.072;2022-09-12T04:40:40;101126.28;;;13.50;97.44
8140;BME280;4111;50.972;7.072;2022-09-12T04:43:07;101139.91;;;13.45;97.70
8140;BME280;4111;50.972;7.072;2022-09-12T04:45:39;101135.72;;;13.37;97.49
8140;BME280;4111;50.972;7.072;2022-09-12T04:48:06;101128.84;;;13.35;97.48
8140;BME280;4111;50.972;7.072;2022-09-12T04:50:32;101128.84;;;13.35;96.65
8140;BME280;4111;50.972;7.072;2022-09-12T04:52:58;101125.06;;;13.36;97.37
8140;BME280;4111;50.972;7.072;2022-09-12T04:55:25;101123.09;;;13.31;97.71
8140;BME280;4111;50.972;7.072;2022-09-12T04:57:51;101119.78;;;13.29;97.66
8140;BME280;4111;50.972;7.072;2022-09-12T05:00:18;101120.63;;;13.29;97.66
8140;BME280;4111;50.972;7.072;2022-09-12T05:02:44;101121.09;;;13.26;97.60
8140;BME280;4111;50.972;7.072;2022-09-12T05:05:11;101119.53;;;13.31;97.65
8140;BME280;4111;50.972;7.072;2022-09-12T05:07:37;101111.41;;;13.36;97.82
8140;BME280;4111;50.972;7.072;2022-09-12T05:10:04;101109.50;;;13.36;97.66
8140;BME280;4111;50.972;7.072;2022-09-12T05:12:31;101108.69;;;13.36;97.95
8140;BME280;4111;50.972;7.072;2022-09-12T05:14:57;101113.63;;;13.39;98.04
8140;BME280;4111;50.972;7.072;2022-09-12T05:17:24;101103.34;;;13.46;98.37
8140;BME280;4111;50.972;7.072;2022-09-12T05:19:50;101104.47;;;13.50;98.73
8140;BME280;4111;50.972;7.072;2022-09-12T05:22:16;101114.97;;;13.63;98.93
8140;BME280;4111;50.972;7.072;2022-09-12T05:24:43;101109.28;;;13.70;98.13
8140;BME280;4111;50.972;7.072;2022-09-12T05:27:15;101112.81;;;13.65;98.77
8140;BME280;4111;50.972;7.072;2022-09-12T05:29:42;101115.22;;;13.62;99.19
8140;BME280;4111;50.972;7.072;2022-09-12T05:32:08;101108.88;;;13.56;100.00
8140;BME280;4111;50.972;7.072;2022-09-12T05:34:34;101109.19;;;13.60;100.00
8140;BME280;4111;50.972;7.072;2022-09-12T05:37:01;101105.66;;;13.59;100.00
8140;BME280;4111;50.972;7.072;2022-09-12T05:39:27;101107.03;;;13.62;100.00
8140;BME280;4111;50.972;7.072;2022-09-12T05:41:54;101111.16;;;13.64;100.00
8140;BME280;4111;50.972;7.072;2022-09-12T05:44:21;101110.66;;;13.67;100.00
8140;BME280;4111;50.972;7.072;2022-09-12T05:46:47;101112.00;;;13.65;100.00
8140;BME280;4111;50.972;7.072;2022-09-12T05:49:16;101115.28;;;13.67;100.00
8140;BME280;4111;50.972;7.072;2022-09-12T05:51:43;101116.72;;;13.75;100.00
8140;BME280;4111;50.972;7.072;2022-09-12T05:54:12;101118.50;;;13.91;100.00
8140;BME280;4111;50.972;7.072;2022-09-12T05:56:40;101124.03;;;13.96;100.00
8140;BME280;4111;50.972;7.072;2022-09-12T05:59:12;101129.47;;;13.96;100.00
8140;BME280;4111;50.972;7.072;2022-09-12T06:01:40;101125.16;;;14.00;100.00
8140;BME280;4111;50.972;7.072;2022-09-12T06:04:07;101124.66;;;14.08;100.00
8140;BME280;4111;50.972;7.072;2022-09-12T06:06:36;101132.97;;;14.24;100.00
8140;BME280;4111;50.972;7.072;2022-09-12T06:09:04;101133.06;;;14.39;100.00
8140;BME280;4111;50.972;7.072;2022-09-12T06:11:33;101126.91;;;14.54;100.00
8140;BME280;4111;50.972;7.072;2022-09-12T06:14:00;101133.31;;;14.70;100.00
8140;BME280;4111;50.972;7.072;2022-09-12T06:16:31;101136.09;;;14.75;100.00
8140;BME280;4111;50.972;7.072;2022-09-12T06:19:03;101132.81;;;14.78;100.00
8140;BME280;4111;50.972;7.072;2022-09-12T06:21:30;101139.44;;;14.93;100.00
8140;BME280;4111;50.972;7.072;2022-09-12T06:23:57;101133.75;;;15.04;100.00
8140;BME280;4111;50.972;7.072;2022-09-12T06:26:24;101122.88;;;15.20;100.00
8140;BME280;4111;50.972;7.072;2022-09-12T06:28:52;101128.13;;;15.26;100.00
8140;BME280;4111;50.972;7.072;2022-09-12T06:31:22;101125.38;;;15.32;100.00
8140;BME280;4111;50.972;7.072;2022-09-12T06:33:52;101124.31;;;15.33;99.77
8140;BME280;4111;50.972;7.072;2022-09-12T06:36:21;101127.06;;;15.48;99.78
8140;BME280;4111;50.972;7.072;2022-09-12T06:38:56;101134.19;;;15.59;99.35
8140;BME280;4111;50.972;7.072;2022-09-12T06:41:24;101129.00;;;15.63;98.73
8140;BME280;4111;50.972;7.072;2022-09-12T06:43:51;101136.41;;;15.67;98.52
8140;BME280;4111;50.972;7.072;2022-09-12T06:46:18;101135.34;;;15.74;98.58
8140;BME280;4111;50.972;7.072;2022-09-12T06:48:45;101135.94;;;15.86;98.33
8140;BME280;4111;50.972;7.072;2022-09-12T06:51:13;101133.72;;;15.93;98.06
8140;BME280;4111;50.972;7.072;2022-09-12T06:53:41;101133.47;;;16.05;97.85
8140;BME280;4111;50.972;7.072;2022-09-12T06:56:21;101132.66;;;16.10;97.79
8140;BME280;4111;50.972;7.072;2022-09-12T06:58:49;101132.94;;;16.23;97.51
8140;BME280;4111;50.972;7.072;2022-09-12T07:01:19;101137.84;;;16.32;97.22
8140;BME280;4111;50.972;7.072;2022-09-12T07:03:48;101127.94;;;16.41;96.40
8140;BME280;4111;50.972;7.072;2022-09-12T07:06:17;101133.97;;;16.48;96.13
8140;BME280;4111;50.972;7.072;2022-09-12T07:08:44;101127.38;;;16.54;96.04
8140;BME280;4111;50.972;7.072;2022-09-12T07:11:12;101132.31;;;16.62;95.74
8140;BME280;4111;50.972;7.072;2022-09-12T07:13:40;101123.81;;;16.69;96.03
8140;BME280;4111;50.972;7.072;2022-09-12T07:16:07;101127.03;;;16.92;95.98
8140;BME280;4111;50.972;7.072;2022-09-12T07:18:36;101131.44;;;16.88;95.23
8140;BME280;4111;50.972;7.072;2022-09-12T07:21:06;101122.63;;;16.96;95.21
8140;BME280;4111;50.972;7.072;2022-09-12T07:23:33;101119.03;;;17.11;95.32
8140;BME280;4111;50.972;7.072;2022-09-12T07:26:00;101128.81;;;17.27;95.11
8140;BME280;4111;50.972;7.072;2022-09-12T07:28:30;101134.03;;;17.34;94.92
8140;BME280;4111;50.972;7.072;2022-09-12T07:30:57;101126.00;;;17.42;94.72
8140;BME280;4111;50.972;7.072;2022-09-12T07:33:27;101133.91;;;17.54;94.61
8140;BME280;4111;50.972;7.072;2022-09-12T07:35:53;101133.81;;;17.70;94.42
8140;BME280;4111;50.972;7.072;2022-09-12T07:38:20;101129.63;;;17.77;93.92
8140;BME280;4111;50.972;7.072;2022-09-12T07:40:47;101132.31;;;17.82;93.70
8140;BME280;4111;50.972;7.072;2022-09-12T07:43:14;101139.63;;;18.02;93.45
8140;BME280;4111;50.972;7.072;2022-09-12T07:45:40;101139.72;;;17.92;92.68
8140;BME280;4111;50.972;7.072;2022-09-12T07:48:07;101136.94;;;17.97;92.26
8140;BME280;4111;50.972;7.072;2022-09-12T07:50:34;101136.81;;;18.13;92.05
8140;BME280;4111;50.972;7.072;2022-09-12T07:53:03;101140.63;;;18.17;91.83
8140;BME280;4111;50.972;7.072;2022-09-12T07:55:30;101141.19;;;18.14;90.75
8140;BME280;4111;50.972;7.072;2022-09-12T07:57:57;101134.06;;;18.13;90.41
8140;BME280;4111;50.972;7.072;2022-09-12T08:00:24;101132.41;;;18.12;89.81
8140;BME280;4111;50.972;7.072;2022-09-12T08:02:51;101132.28;;;18.27;89.73
8140;BME280;4111;50.972;7.072;2022-09-12T08:05:19;101139.91;;;18.35;89.94
8140;BME280;4111;50.972;7.072;2022-09-12T08:07:46;101134.41;;;18.35;89.01
8140;BME280;4111;50.972;7.072;2022-09-12T08:10:12;101132.22;;;18.32;88.80
8140;BME280;4111;50.972;7.072;2022-09-12T08:12:39;101145.69;;;18.34;88.52
8140;BME280;4111;50.972;7.072;2022-09-12T08:15:05;101141.53;;;18.36;88.16
8140;BME280;4111;50.972;7.072;2022-09-12T08:17:32;101138.75;;;18.41;88.58
8140;BME280;4111;50.972;7.072;2022-09-12T08:19:58;101143.72;;;18.39;88.13
8140;BME280;4111;50.972;7.072;2022-09-12T08:22:25;101142.09;;;18.38;88.08
8140;BME280;4111;50.972;7.072;2022-09-12T08:24:51;101137.16;;;18.35;87.83
8140;BME280;4111;50.972;7.072;2022-09-12T08:27:18;101133.84;;;18.38;87.93
8140;BME280;4111;50.972;7.072;2022-09-12T08:29:45;101139.81;;;18.46;87.49
8140;BME280;4111;50.972;7.072;2022-09-12T08:32:11;101139.75;;;18.51;87.56
8140;BME280;4111;50.972;7.072;2022-09-12T08:34:37;101138.88;;;18.55;87.38
8140;BME280;4111;50.972;7.072;2022-09-12T08:37:04;101142.97;;;18.58;87.10
8140;BME280;4111;50.972;7.072;2022-09-12T08:39:30;101141.88;;;18.59;86.77
8140;BME280;4111;50.972;7.072;2022-09-12T08:42:03;101136.31;;;18.64;86.70
8140;BME280;4111;50.972;7.072;2022-09-12T08:47:28;101130.13;;;19.01;86.55
8140;BME280;4111;50.972;7.072;2022-09-12T08:50:02;101132.34;;;19.24;85.70
8140;BME280;4111;50.972;7.072;2022-09-12T08:52:41;101136.25;;;19.41;85.10
8140;BME280;4111;50.972;7.072;2022-09-12T08:56:00;101132.53;;;19.51;84.61
8140;BME280;4111;50.972;7.072;2022-09-12T08:58:21;101135.81;;;19.53;83.78
8140;BME280;4111;50.972;7.072;2022-09-12T09:06:55;101123.31;;;19.80;82.12
8140;BME280;4111;50.972;7.072;2022-09-12T09:12:27;101124.72;;;19.96;81.21
8140;BME280;4111;50.972;7.072;2022-09-12T09:15:09;101116.34;;;20.01;80.71
8140;BME280;4111;50.972;7.072;2022-09-12T09:18:04;101114.09;;;20.04;80.27
8140;BME280;4111;50.972;7.072;2022-09-12T09:20:44;101114.94;;;20.18;80.43
8140;BME280;4111;50.972;7.072;2022-09-12T09:23:26;101113.56;;;20.20;79.55
8140;BME280;4111;50.972;7.072;2022-09-12T09:28:24;101103.06;;;20.36;79.12
8140;BME280;4111;50.972;7.072;2022-09-12T09:30:52;101105.00;;;20.36;78.37
8140;BME280;4111;50.972;7.072;2022-09-12T09:33:24;101097.25;;;20.38;78.15
8140;BME280;4111;50.972;7.072;2022-09-12T09:39:02;101097.28;;;20.52;78.48
8140;BME280;4111;50.972;7.072;2022-09-12T09:41:40;101096.81;;;20.64;78.66
8140;BME280;4111;50.972;7.072;2022-09-12T09:44:11;101095.16;;;20.76;78.86
8140;BME280;4111;50.972;7.072;2022-09-12T09:46:38;101095.44;;;20.89;78.27
8140;BME280;4111;50.972;7.072;2022-09-12T09:49:05;101097.47;;;20.97;76.77
8140;BME280;4111;50.972;7.072;2022-09-12T09:51:35;101088.28;;;21.15;76.97
8140;BME280;4111;50.972;7.072;2022-09-12T09:54:16;101083.84;;;21.28;75.96
8140;BME280;4111;50.972;7.072;2022-09-12T09:56:43;101081.56;;;21.44;75.58
8140;BME280;4111;50.972;7.072;2022-09-12T10:04:20;101075.28;;;21.52;72.58
8140;BME280;4111;50.972;7.072;2022-09-12T10:06:50;101071.38;;;21.67;72.25
8140;BME280;4111;50.972;7.072;2022-09-12T10:09:19;101069.16;;;21.78;71.30
8140;BME280;4111;50.972;7.072;2022-09-12T10:11:47;101059.97;;;21.91;71.34
8140;BME280;4111;50.972;7.072;2022-09-12T10:14:35;101055.81;;;22.03;71.27
8140;BME280;4111;50.972;7.072;2022-09-12T10:19:48;101058.31;;;22.13;70.35
8140;BME280;4111;50.972;7.072;2022-09-12T10:22:37;101057.88;;;22.20;69.32
8140;BME280;4111;50.972;7.072;2022-09-12T10:25:10;101053.16;;;22.20;68.51
8140;BME280;4111;50.972;7.072;2022-09-12T10:27:37;101052.00;;;22.21;68.35
8140;BME280;4111;50.972;7.072;2022-09-12T10:32:45;101049.16;;;22.26;66.88
8140;BME280;4111;50.972;7.072;2022-09-12T10:35:22;101043.34;;;22.36;66.86
8140;BME280;4111;50.972;7.072;2022-09-12T10:37:54;101050.03;;;22.44;67.00
8140;BME280;4111;50.972;7.072;2022-09-12T10:40:27;101045.19;;;22.50;66.16
8140;BME280;4111;50.972;7.072;2022-09-12T10:42:59;101036.88;;;22.50;65.82
8140;BME280;4111;50.972;7.072;2022-09-12T10:45:33;101037.88;;;22.54;65.63
8140;BME280;4111;50.972;7.072;2022-09-12T10:50:50;101032.69;;;22.61;64.98
8140;BME280;4111;50.972;7.072;2022-09-12T10:53:22;101028.94;;;22.66;64.97
8140;BME280;4111;50.972;7.072;2022-09-12T11:07:09;101007.31;;;22.76;64.70
8140;BME280;4111;50.972;7.072;2022-09-12T11:12:21;100998.84;;;22.90;64.04
8140;BME280;4111;50.972;7.072;2022-09-12T11:30:20;100969.59;;;23.33;60.98
8140;BME280;4111;50.972;7.072;2022-09-12T11:35:56;100969.84;;;23.58;60.84
8140;BME280;4111;50.972;7.072;2022-09-12T11:38:37;100958.94;;;23.61;59.53
8140;BME280;4111;50.972;7.072;2022-09-12T11:46:39;100954.50;;;23.69;60.10
8140;BME280;4111;50.972;7.072;2022-09-12T11:51:43;100954.81;;;23.76;59.70
8140;BME280;4111;50.972;7.072;2022-09-12T11:56:55;100954.50;;;23.86;59.18
8140;BME280;4111;50.972;7.072;2022-09-12T11:59:33;100946.47;;;23.93;58.19
8140;BME280;4111;50.972;7.072;2022-09-12T12:02:03;100944.72;;;23.80;58.12
8140;BME280;4111;50.972;7.072;2022-09-12T12:04:42;100940.00;;;23.81;57.99
8140;BME280;4111;50.972;7.072;2022-09-12T12:07:10;100939.34;;;23.84;57.47
8140;BME280;4111;50.972;7.072;2022-09-12T12:09:45;100940.59;;;23.95;56.81
8140;BME280;4111;50.972;7.072;2022-09-12T12:12:19;100947.25;;;24.03;56.94
8140;BME280;4111;50.972;7.072;2022-09-12T12:14:49;100955.06;;;24.09;57.43
8140;BME280;4111;50.972;7.072;2022-09-12T12:17:22;100942.31;;;24.08;57.21
8140;BME280;4111;50.972;7.072;2022-09-12T12:20:00;100939.38;;;24.13;56.67
8140;BME280;4111;50.972;7.072;2022-09-12T12:22:33;100934.47;;;24.19;56.54
8140;BME280;4111;50.972;7.072;2022-09-12T12:27:53;100944.22;;;24.25;56.03
8140;BME280;4111;50.972;7.072;2022-09-12T12:38:31;100913.22;;;24.44;54.44
8140;BME280;4111;50.972;7.072;2022-09-12T12:43:44;100912.91;;;24.46;53.63
8140;BME280;4111;50.972;7.072;2022-09-12T12:46:13;100905.44;;;24.38;53.03
8140;BME280;4111;50.972;7.072;2022-09-12T12:49:08;100903.63;;;24.42;53.38
8140;BME280;4111;50.972;7.072;2022-09-12T12:51:47;100898.72;;;24.39;53.23
8140;BME280;4111;50.972;7.072;2022-09-12T12:54:30;100892.38;;;24.38;52.83
8140;BME280;4111;50.972;7.072;2022-09-12T12:57:05;100876.53;;;24.39;52.81
8140;BME280;4111;50.972;7.072;2022-09-12T12:59:49;100880.88;;;24.48;53.37
8140;BME280;4111;50.972;7.072;2022-09-12T13:04:52;100870.63;;;24.70;52.76
8140;BME280;4111;50.972;7.072;2022-09-12T13:07:26;100871.94;;;24.72;52.51
8140;BME280;4111;50.972;7.072;2022-09-12T13:09:54;100868.78;;;24.74;52.39
8140;BME280;4111;50.972;7.072;2022-09-12T13:12:24;100865.66;;;24.76;51.47
8140;BME280;4111;50.972;7.072;2022-09-12T13:17:30;100855.38;;;24.76;51.80
8140;BME280;4111;50.972;7.072;2022-09-12T13:20:15;100841.63;;;24.80;52.17
8140;BME280;4111;50.972;7.072;2022-09-12T13:22:53;100844.88;;;24.82;51.91
8140;BME280;4111;50.972;7.072;2022-09-12T13:25:34;100846.06;;;24.93;51.09
8140;BME280;4111;50.972;7.072;2022-09-12T13:28:05;100849.78;;;24.97;50.20
8140;BME280;4111;50.972;7.072;2022-09-12T13:30:35;100847.16;;;25.01;50.42
8140;BME280;4111;50.972;7.072;2022-09-12T13:44:08;100849.81;;;25.09;49.70
8140;BME280;4111;50.972;7.072;2022-09-12T13:46:36;100846.84;;;25.14;49.33
8140;BME280;4111;50.972;7.072;2022-09-12T13:49:25;100850.22;;;25.20;49.11
8140;BME280;4111;50.972;7.072;2022-09-12T13:52:17;100849.97;;;25.13;48.07
8140;BME280;4111;50.972;7.072;2022-09-12T13:54:49;100851.69;;;25.18;48.04
8140;BME280;4111;50.972;7.072;2022-09-12T13:57:32;100848.91;;;25.18;47.35
8140;BME280;4111;50.972;7.072;2022-09-12T14:00:10;100853.00;;;25.20;47.18
8140;BME280;4111;50.972;7.072;2022-09-12T14:02:38;100836.97;;;25.26;46.88
8140;BME280;4111;50.972;7.072;2022-09-12T14:05:20;100827.00;;;25.37;47.03
8140;BME280;4111;50.972;7.072;2022-09-12T14:07:52;100826.66;;;25.51;47.38
8140;BME280;4111;50.972;7.072;2022-09-12T14:10:34;100818.34;;;25.63;47.08
8140;BME280;4111;50.972;7.072;2022-09-12T14:13:08;100827.97;;;25.66;46.22
8140;BME280;4111;50.972;7.072;2022-09-12T14:15:37;100830.84;;;25.82;46.24
8140;BME280;4111;50.972;7.072;2022-09-12T14:18:05;100826.13;;;25.95;45.94
8140;BME280;4111;50.972;7.072;2022-09-12T14:20:38;100823.88;;;26.12;45.36
8140;BME280;4111;50.972;7.072;2022-09-12T14:23:31;100814.81;;;26.28;44.72
8140;BME280;4111;50.972;7.072;2022-09-12T14:26:03;100810.16;;;26.32;44.59
8140;BME280;4111;50.972;7.072;2022-09-12T14:28:31;100803.94;;;26.63;45.03
8140;BME280;4111;50.972;7.072;2022-09-12T14:31:04;100797.25;;;26.80;44.77
8140;BME280;4111;50.972;7.072;2022-09-12T14:33:45;100792.31;;;26.89;43.96
8140;BME280;4111;50.972;7.072;2022-09-12T14:36:22;100789.63;;;26.93;43.83
8140;BME280;4111;50.972;7.072;2022-09-12T14:38:53;100783.88;;;26.86;43.74
8140;BME280;4111;50.972;7.072;2022-09-12T14:41:25;100775.78;;;26.81;43.86
8140;BME280;4111;50.972;7.072;2022-09-12T14:43:55;100783.00;;;26.82;43.24
8140;BME280;4111;50.972;7.072;2022-09-12T14:46:29;100774.31;;;26.71;43.29
8140;BME280;4111;50.972;7.072;2022-09-12T14:51:34;100768.44;;;27.04;43.18
8140;BME280;4111;50.972;7.072;2022-09-12T14:54:02;100761.03;;;27.24;43.38
8140;BME280;4111;50.972;7.072;2022-09-12T14:56:40;100764.88;;;27.20;42.90
8140;BME280;4111;50.972;7.072;2022-09-12T14:59:26;100766.28;;;26.98;43.18
8140;BME280;4111;50.972;7.072;2022-09-12T15:04:41;100768.41;;;26.73;43.23
8140;BME280;4111;50.972;7.072;2022-09-12T15:07:29;100761.28;;;26.75;43.62
8140;BME280;4111;50.972;7.072;2022-09-12T15:09:58;100756.34;;;26.68;44.08
8140;BME280;4111;50.972;7.072;2022-09-12T15:12:25;100764.25;;;26.66;43.86
8140;BME280;4111;50.972;7.072;2022-09-12T15:14:57;100756.94;;;26.62;44.13
8140;BME280;4111;50.972;7.072;2022-09-12T15:17:25;100752.44;;;26.57;44.51
8140;BME280;4111;50.972;7.072;2022-09-12T15:19:51;100754.72;;;26.39;43.97
8140;BME280;4111;50.972;7.072;2022-09-12T15:22:18;100756.22;;;26.37;44.63
8140;BME280;4111;50.972;7.072;2022-09-12T15:24:49;100746.81;;;26.41;44.43
8140;BME280;4111;50.972;7.072;2022-09-12T15:27:15;100749.94;;;26.40;44.80
8140;BME280;4111;50.972;7.072;2022-09-12T15:29:42;100751.97;;;26.27;44.90
8140;BME280;4111;50.972;7.072;2022-09-12T15:32:12;100751.06;;;26.23;44.72
8140;BME280;4111;50.972;7.072;2022-09-12T15:34:40;100750.94;;;26.19;44.61
8140;BME280;4111;50.972;7.072;2022-09-12T15:37:11;100737.50;;;26.21;45.14
8140;BME280;4111;50.972;7.072;2022-09-12T15:39:39;100734.50;;;26.14;44.82
8140;BME280;4111;50.972;7.072;2022-09-12T15:42:08;100730.69;;;26.06;45.02
8140;BME280;4111;50.972;7.072;2022-09-12T15:44:34;100735.50;;;25.94;45.42
8140;BME280;4111;50.972;7.072;2022-09-12T15:47:01;100734.88;;;25.88;45.72
8140;BME280;4111;50.972;7.072;2022-09-12T15:49:27;100733.41;;;25.78;46.13
8140;BME280;4111;50.972;7.072;2022-09-12T15:51:54;100738.50;;;25.76;46.67
8140;BME280;4111;50.972;7.072;2022-09-12T15:54:20;100732.63;;;25.65;46.43
8140;BME280;4111;50.972;7.072;2022-09-12T15:56:46;100732.03;;;25.60;46.62
8140;BME280;4111;50.972;7.072;2022-09-12T15:59:13;100726.69;;;25.55;47.09